Zion, Illinois
Current Conditions -  °F | °C
As of 12:21 AM on Wednesday 22 Oct 2014 (Local Time) from KUGN Reporting Station
Scattered Clouds Scattered Clouds  
Wind Chill: 40°   Ceiling: Unl
Heat Index: 40°   Visibility: 10mi
Dew Point: 38°   Wind: 0mph
Humidity: 93%   Direction: NA
Pressure: 30.26"   Gusts: NA
Location:  42.44°N, 87.82°W
Report Text: KUGN 220521Z 00000KT 10SM SCT028 04/03 A3026 RMK AO2 T00440033
Loading
Personal Weather Stations






























Interactive Weather Map
Tropical Storm Tracking
New forecast layout! Learn more

10-Day Weather Forecast

Advertisements
Track Severe Weather on mobile